createdAt,value
2023-09-11T00:00:06.082Z,48.80
2023-09-11T00:02:32.918Z,44.42
2023-09-11T00:04:59.752Z,46.00
2023-09-11T00:07:26.571Z,43.42
2023-09-11T00:09:53.425Z,42.47
2023-09-11T00:12:20.268Z,39.78
2023-09-11T00:14:47.177Z,40.92
2023-09-11T00:17:14.137Z,39.67
2023-09-11T00:19:41.017Z,40.67
2023-09-11T00:22:07.909Z,40.50
2023-09-11T00:24:34.707Z,40.50
2023-09-11T00:27:01.558Z,44.35
2023-09-11T00:29:28.833Z,46.08
2023-09-11T00:31:55.715Z,44.42
2023-09-11T00:34:22.605Z,41.90
2023-09-11T00:36:49.389Z,42.67
2023-09-11T00:39:16.253Z,43.30
2023-09-11T00:41:44.383Z,40.95
2023-09-11T00:44:11.372Z,41.88
2023-09-11T00:46:38.404Z,42.25
2023-09-11T00:49:05.621Z,42.78
2023-09-11T00:51:32.516Z,41.60
2023-09-11T00:54:00.127Z,42.40
2023-09-11T00:56:27.354Z,40.88
2023-09-11T00:58:54.549Z,39.78
2023-09-11T01:01:24.059Z,42.13
2023-09-11T01:03:51.606Z,40.45
2023-09-11T01:10:07.450Z,37.63
2023-09-11T01:12:38.983Z,40.25
2023-09-11T01:15:07.162Z,41.22
2023-09-11T01:17:44.194Z,39.72
2023-09-11T01:20:13.874Z,38.60
2023-09-11T01:22:51.248Z,40.83
2023-09-11T01:25:48.794Z,39.55
2023-09-11T01:28:30.337Z,39.95
2023-09-11T01:31:00.270Z,39.78
2023-09-11T01:33:27.253Z,38.65
2023-09-11T01:35:54.090Z,40.08
2023-09-11T01:38:21.126Z,42.50
2023-09-11T01:40:53.363Z,43.15
2023-09-11T01:43:22.447Z,41.33
2023-09-11T01:45:49.915Z,41.50
2023-09-11T01:48:17.862Z,41.22
2023-09-11T01:50:45.472Z,40.42
2023-09-11T01:53:13.162Z,39.90
2023-09-11T01:55:40.287Z,42.38
2023-09-11T01:58:07.121Z,39.05
2023-09-11T02:00:34.006Z,40.28
2023-09-11T02:03:01.166Z,41.60
2023-09-11T02:05:28.117Z,38.08
2023-09-11T02:07:54.980Z,39.95
2023-09-11T02:10:21.798Z,39.22
2023-09-11T02:12:48.775Z,39.30
2023-09-11T02:15:16.217Z,38.83
2023-09-11T02:17:43.124Z,41.15
2023-09-11T02:20:10.378Z,40.25
2023-09-11T02:22:37.201Z,39.83
2023-09-11T02:25:04.186Z,38.38
2023-09-11T02:27:31.072Z,39.88
2023-09-11T02:29:59.047Z,41.53
2023-09-11T02:32:26.678Z,40.90
2023-09-11T02:34:53.488Z,39.40
2023-09-11T02:37:22.318Z,41.15
2023-09-11T02:39:49.109Z,42.20
2023-09-11T02:42:15.911Z,40.97
2023-09-11T02:44:44.354Z,40.05
2023-09-11T02:47:11.234Z,40.50
2023-09-11T02:49:38.048Z,40.28
2023-09-11T02:52:05.352Z,39.47
2023-09-11T02:54:32.240Z,38.35
2023-09-11T02:56:59.060Z,39.72
2023-09-11T02:59:25.974Z,39.45
2023-09-11T03:01:52.824Z,40.72
2023-09-11T03:04:19.616Z,40.45
2023-09-11T03:06:46.538Z,39.85
2023-09-11T03:09:13.362Z,37.15
2023-09-11T03:11:40.325Z,39.90
2023-09-11T03:14:07.180Z,36.90
2023-09-11T03:16:33.975Z,38.67
2023-09-11T03:19:00.869Z,37.05
2023-09-11T03:21:27.729Z,40.78
2023-09-11T03:23:54.581Z,41.20
2023-09-11T03:26:21.554Z,39.30
2023-09-11T03:28:50.902Z,39.47
2023-09-11T03:31:18.231Z,39.35
2023-09-11T03:33:45.811Z,40.60
2023-09-11T03:36:17.715Z,40.67
2023-09-11T03:38:45.098Z,39.72
2023-09-11T03:41:13.429Z,39.03
2023-09-11T03:43:40.242Z,39.10
2023-09-11T03:46:07.173Z,39.47
2023-09-11T03:48:34.152Z,40.33
2023-09-11T03:51:01.156Z,38.83
2023-09-11T03:53:28.082Z,38.92
2023-09-11T03:55:54.997Z,36.20
2023-09-11T03:58:21.912Z,37.15
2023-09-11T04:00:48.771Z,37.70
2023-09-11T04:03:15.751Z,37.92
2023-09-11T04:05:42.846Z,37.88
2023-09-11T04:08:09.919Z,37.13
2023-09-11T04:10:36.790Z,37.67
2023-09-11T04:13:03.702Z,39.35
2023-09-11T04:15:30.639Z,38.50
2023-09-11T04:17:58.697Z,40.97
2023-09-11T04:20:25.888Z,39.35
2023-09-11T04:22:52.757Z,37.65
2023-09-11T04:25:19.715Z,39.80
2023-09-11T04:27:46.569Z,40.58
2023-09-11T04:30:13.985Z,41.22
2023-09-11T04:32:41.042Z,41.20
2023-09-11T04:35:08.807Z,42.15
2023-09-11T04:37:36.670Z,41.92
2023-09-11T04:40:07.659Z,39.88
2023-09-11T04:42:37.004Z,41.40
2023-09-11T04:45:07.470Z,40.70
2023-09-11T04:47:35.518Z,39.75
2023-09-11T04:50:02.474Z,42.80
2023-09-11T04:52:29.685Z,40.08
2023-09-11T04:55:06.451Z,40.53
2023-09-11T04:57:33.425Z,39.65
2023-09-11T05:00:01.243Z,38.33
2023-09-11T05:02:28.398Z,36.80
2023-09-11T05:04:55.238Z,37.60
2023-09-11T05:07:22.161Z,35.65
2023-09-11T05:09:49.202Z,36.97
2023-09-11T05:12:16.093Z,33.58
2023-09-11T05:14:45.496Z,34.33
2023-09-11T05:17:13.057Z,35.03
2023-09-11T05:19:39.928Z,33.72
2023-09-11T05:22:07.224Z,34.08
2023-09-11T05:24:35.188Z,32.30
2023-09-11T05:27:02.134Z,33.05
2023-09-11T05:29:29.159Z,31.83
2023-09-11T05:31:56.153Z,31.70
2023-09-11T05:34:23.176Z,30.55
2023-09-11T05:36:50.105Z,33.45
2023-09-11T05:39:17.125Z,29.55
2023-09-11T05:41:44.002Z,29.63
2023-09-11T05:44:10.866Z,31.48
2023-09-11T05:46:37.804Z,31.30
2023-09-11T05:49:04.869Z,30.95
2023-09-11T05:51:31.773Z,31.02
2023-09-11T05:53:58.744Z,33.45
2023-09-11T05:56:25.983Z,33.20
2023-09-11T05:58:52.906Z,33.30
2023-09-11T06:01:19.777Z,34.83
2023-09-11T06:03:46.839Z,34.10
2023-09-11T06:06:14.039Z,34.88
2023-09-11T06:08:41.126Z,33.85
2023-09-11T06:11:08.185Z,36.72
2023-09-11T06:13:37.080Z,34.50
2023-09-11T06:16:04.304Z,32.38
2023-09-11T06:18:31.310Z,33.00
2023-09-11T06:20:58.693Z,32.67
2023-09-11T06:23:25.733Z,32.72
2023-09-11T06:25:52.674Z,32.97
2023-09-11T06:28:19.586Z,29.95
2023-09-11T06:30:46.563Z,33.22
2023-09-11T06:33:13.584Z,32.15
2023-09-11T06:35:40.548Z,31.55
2023-09-11T06:38:07.597Z,30.88
2023-09-11T06:40:34.555Z,33.85
2023-09-11T06:43:02.016Z,33.03
2023-09-11T06:45:28.997Z,32.50
2023-09-11T06:47:56.024Z,31.67
2023-09-11T06:50:23.134Z,32.00
2023-09-11T06:52:49.989Z,26.85
2023-09-11T06:55:16.979Z,30.20
2023-09-11T06:57:58.526Z,24.98
2023-09-11T07:00:25.657Z,27.95
2023-09-11T07:02:52.807Z,27.77
2023-09-11T07:05:24.148Z,26.67
2023-09-11T07:07:50.995Z,27.23
2023-09-11T07:10:29.981Z,28.50
2023-09-11T07:13:01.568Z,27.55
2023-09-11T07:15:28.504Z,27.90
2023-09-11T07:17:55.501Z,26.98
2023-09-11T07:20:22.946Z,28.10
2023-09-11T07:22:49.954Z,26.88
2023-09-11T07:25:18.368Z,29.17
2023-09-11T07:27:45.467Z,30.48
2023-09-11T07:30:12.600Z,28.40
2023-09-11T07:32:39.745Z,30.23
2023-09-11T07:35:07.596Z,29.48
2023-09-11T07:37:34.736Z,27.88
2023-09-11T07:40:02.473Z,26.45
2023-09-11T07:42:29.382Z,27.05
2023-09-11T07:44:56.416Z,27.77
2023-09-11T07:47:23.324Z,25.23
2023-09-11T07:49:50.295Z,25.73
2023-09-11T07:52:17.191Z,25.80
2023-09-11T07:54:44.403Z,26.67
2023-09-11T07:57:11.345Z,25.38
2023-09-11T07:59:38.249Z,24.98
2023-09-11T08:02:05.182Z,26.50
2023-09-11T08:04:33.414Z,24.55
2023-09-11T08:07:00.442Z,23.88
2023-09-11T08:09:27.600Z,24.80
2023-09-11T08:11:54.465Z,23.00
2023-09-11T08:14:23.897Z,25.10
2023-09-11T08:16:51.112Z,23.83
2023-09-11T08:19:18.023Z,23.35
2023-09-11T08:21:44.906Z,21.73
2023-09-11T08:24:12.716Z,22.42
2023-09-11T08:26:39.905Z,20.60
2023-09-11T08:29:12.220Z,19.52
2023-09-11T08:31:39.539Z,20.42
2023-09-11T08:34:06.592Z,18.80
2023-09-11T08:36:34.035Z,17.65
2023-09-11T08:39:01.143Z,17.17
2023-09-11T08:41:29.112Z,16.25
2023-09-11T08:43:56.049Z,15.88
2023-09-11T08:46:23.868Z,16.15
2023-09-11T08:48:55.929Z,14.68
2023-09-11T08:51:40.516Z,15.15
2023-09-11T08:54:11.069Z,14.63
2023-09-11T08:56:41.596Z,12.88
2023-09-11T08:59:11.355Z,13.57
2023-09-11T09:01:40.133Z,12.68
2023-09-11T09:04:08.436Z,12.73
2023-09-11T09:06:36.929Z,13.40
2023-09-11T09:09:03.941Z,13.98
2023-09-11T09:11:32.744Z,12.35
2023-09-11T09:14:00.529Z,11.13
2023-09-11T09:16:27.601Z,11.75
2023-09-11T09:18:54.790Z,12.38
2023-09-11T09:21:26.917Z,10.63
2023-09-11T09:23:54.322Z,12.65
2023-09-11T09:26:23.256Z,11.55
2023-09-11T09:28:53.069Z,12.27
2023-09-11T09:31:27.033Z,11.98
2023-09-11T09:33:58.004Z,11.13
2023-09-11T09:36:25.410Z,12.27
2023-09-11T09:38:52.843Z,13.05
2023-09-11T09:41:22.568Z,12.63
2023-09-11T09:43:54.665Z,12.65
2023-09-11T09:46:23.239Z,12.30
2023-09-11T09:48:50.698Z,11.45
2023-09-11T09:51:17.827Z,11.18
2023-09-11T09:53:47.820Z,10.80
2023-09-11T09:56:16.239Z,10.48
2023-09-11T09:58:46.128Z,10.85
2023-09-11T10:01:18.672Z,10.25
2023-09-11T10:03:50.443Z,10.32
2023-09-11T10:06:18.388Z,10.32
2023-09-11T10:08:46.365Z,8.65
2023-09-11T10:11:30.272Z,9.07
2023-09-11T10:14:18.738Z,9.40
2023-09-11T10:16:47.564Z,10.13
2023-09-11T10:19:14.592Z,10.48
2023-09-11T10:21:41.576Z,10.77
2023-09-11T10:24:11.432Z,10.18
2023-09-11T10:27:03.998Z,9.70
2023-09-11T10:29:48.564Z,9.63
2023-09-11T10:32:27.690Z,9.00
2023-09-11T10:34:54.922Z,10.32
2023-09-11T10:37:22.712Z,9.65
2023-09-11T10:39:52.009Z,9.20
2023-09-11T10:42:19.431Z,9.18
2023-09-11T10:44:46.352Z,10.20
2023-09-11T10:47:13.341Z,8.75
2023-09-11T10:49:42.562Z,10.75
2023-09-11T10:52:10.110Z,8.52
2023-09-11T10:54:37.479Z,9.38
2023-09-11T10:57:06.085Z,8.57
2023-09-11T10:59:33.671Z,9.63
2023-09-11T11:02:00.912Z,9.20
2023-09-11T11:04:31.760Z,8.95
2023-09-11T11:07:00.902Z,9.10
2023-09-11T11:09:42.255Z,8.20
2023-09-11T11:12:14.733Z,8.32
2023-09-11T11:14:41.932Z,7.97
2023-09-11T11:17:11.798Z,7.57
2023-09-11T11:19:53.303Z,7.57
2023-09-11T11:22:40.458Z,7.97
2023-09-11T11:25:11.694Z,7.55
2023-09-11T11:27:43.017Z,8.05
2023-09-11T11:30:10.505Z,7.82
2023-09-11T11:32:42.462Z,7.80
2023-09-11T11:35:12.286Z,8.07
2023-09-11T11:37:46.432Z,6.55
2023-09-11T11:40:14.996Z,7.38
2023-09-11T11:42:42.722Z,6.60
2023-09-11T11:45:10.134Z,6.07
2023-09-11T11:47:37.896Z,6.18
2023-09-11T11:50:09.534Z,6.30
2023-09-11T11:52:36.416Z,6.10
2023-09-11T11:55:22.174Z,5.47
2023-09-11T11:57:53.783Z,5.70
2023-09-11T12:00:21.694Z,5.50
2023-09-11T12:02:48.642Z,5.32
2023-09-11T12:05:16.726Z,5.45
2023-09-11T12:07:44.552Z,5.53
2023-09-11T12:10:12.084Z,5.18
2023-09-11T12:12:42.338Z,5.60
2023-09-11T12:15:11.394Z,6.03
2023-09-11T12:17:54.751Z,5.68
2023-09-11T12:20:26.018Z,5.40
2023-09-11T12:22:52.969Z,5.70
2023-09-11T12:25:20.147Z,5.40
2023-09-11T12:27:47.433Z,6.07
2023-09-11T12:30:15.317Z,5.70
2023-09-11T12:32:42.297Z,5.85
2023-09-11T12:35:09.712Z,6.97
2023-09-11T12:37:41.487Z,5.65
2023-09-11T12:40:12.315Z,5.93
2023-09-11T12:42:40.668Z,5.75
2023-09-11T12:45:09.820Z,5.68
2023-09-11T12:47:37.624Z,6.30
2023-09-11T12:50:05.309Z,5.32
2023-09-11T12:52:32.286Z,5.35
2023-09-11T12:54:59.169Z,5.65
2023-09-11T12:57:27.229Z,6.10
2023-09-11T12:59:54.762Z,6.25
2023-09-11T13:02:22.253Z,5.18
2023-09-11T13:04:49.611Z,6.00
2023-09-11T13:07:16.512Z,5.80
2023-09-11T13:09:44.054Z,6.25
2023-09-11T13:12:11.048Z,5.63
2023-09-11T13:14:38.135Z,6.13
2023-09-11T13:17:05.365Z,6.40
2023-09-11T13:19:32.231Z,6.15
2023-09-11T13:21:59.226Z,5.60
2023-09-11T13:24:26.284Z,6.45
2023-09-11T13:26:53.287Z,5.82
2023-09-11T13:29:20.333Z,6.43
2023-09-11T13:31:47.237Z,5.72
2023-09-11T13:34:14.620Z,6.60
2023-09-11T13:36:41.677Z,7.13
2023-09-11T13:39:08.710Z,5.63
2023-09-11T13:41:36.020Z,6.72
2023-09-11T13:44:03.859Z,5.72
2023-09-11T13:46:30.910Z,6.38
2023-09-11T13:48:57.816Z,6.10
2023-09-11T13:51:27.545Z,6.15
2023-09-11T13:53:54.764Z,5.70
2023-09-11T13:56:23.495Z,6.05
2023-09-11T13:58:53.897Z,6.32
2023-09-11T14:01:21.005Z,5.93
2023-09-11T14:03:48.152Z,5.82
2023-09-11T14:06:15.152Z,6.65
2023-09-11T14:08:42.325Z,6.20
2023-09-11T14:11:09.525Z,6.15
2023-09-11T14:13:36.786Z,5.75
2023-09-11T14:16:04.761Z,5.43
2023-09-11T14:18:32.034Z,6.18
2023-09-11T14:20:59.222Z,6.10
2023-09-11T14:23:26.265Z,5.53
2023-09-11T14:25:55.409Z,5.30
2023-09-11T14:28:22.430Z,6.65
2023-09-11T14:30:49.301Z,6.13
2023-09-11T14:33:16.253Z,6.13
2023-09-11T14:35:43.216Z,5.20
2023-09-11T14:38:10.106Z,5.63
2023-09-11T14:40:37.149Z,5.50
2023-09-11T14:43:04.471Z,7.00
2023-09-11T14:45:31.562Z,5.78
2023-09-11T14:47:58.503Z,6.15
2023-09-11T14:50:25.870Z,6.28
2023-09-11T14:52:53.793Z,5.97
2023-09-11T14:55:20.738Z,5.40
2023-09-11T14:57:47.637Z,5.55
2023-09-11T15:00:15.571Z,5.68
2023-09-11T15:02:42.736Z,5.55
2023-09-11T15:05:09.847Z,5.93
2023-09-11T15:07:36.851Z,6.00
2023-09-11T15:10:03.853Z,6.63
2023-09-11T15:12:30.908Z,6.72
2023-09-11T15:14:57.816Z,6.20
2023-09-11T15:17:24.752Z,6.45
2023-09-11T15:19:51.691Z,6.18
2023-09-11T15:22:18.769Z,5.20
2023-09-11T15:24:45.648Z,5.70
2023-09-11T15:27:12.832Z,5.68
2023-09-11T15:29:39.979Z,6.22
2023-09-11T15:32:12.142Z,5.47
2023-09-11T15:34:41.789Z,5.53
2023-09-11T15:37:18.821Z,7.13
2023-09-11T15:39:46.832Z,5.60
2023-09-11T15:42:13.748Z,5.95
2023-09-11T15:44:40.774Z,5.60
2023-09-11T15:47:07.697Z,6.50
2023-09-11T15:49:34.670Z,6.03
2023-09-11T15:52:05.189Z,5.57
2023-09-11T15:54:34.019Z,5.63
2023-09-11T15:57:01.324Z,5.90
2023-09-11T15:59:28.454Z,7.13
2023-09-11T16:01:55.474Z,5.80
2023-09-11T16:04:22.495Z,6.10
2023-09-11T16:06:49.648Z,7.13
2023-09-11T16:09:16.662Z,6.47
2023-09-11T16:11:44.203Z,8.15
2023-09-11T16:14:11.232Z,7.10
2023-09-11T16:16:41.126Z,5.80
2023-09-11T16:19:08.151Z,5.82
2023-09-11T16:21:40.760Z,5.20
2023-09-11T16:24:08.653Z,5.78
2023-09-11T16:26:36.236Z,6.10
2023-09-11T16:29:03.608Z,5.72
2023-09-11T16:31:31.233Z,5.93
2023-09-11T16:33:58.624Z,7.68
2023-09-11T16:36:26.230Z,5.97
2023-09-11T16:38:53.364Z,8.35
2023-09-11T16:41:20.423Z,7.13
2023-09-11T16:43:47.297Z,6.20
2023-09-11T16:46:14.284Z,6.40
2023-09-11T16:48:41.946Z,6.18
2023-09-11T16:51:09.568Z,5.80
2023-09-11T16:53:36.589Z,7.22
2023-09-11T16:56:03.747Z,7.03
2023-09-11T16:58:30.628Z,6.53
2023-09-11T17:01:09.491Z,7.18
2023-09-11T17:03:36.671Z,7.07
2023-09-11T17:06:06.831Z,6.75
2023-09-11T17:08:34.042Z,6.35
2023-09-11T17:11:01.174Z,6.97
2023-09-11T17:13:28.297Z,7.57
2023-09-11T17:15:57.117Z,6.75
2023-09-11T17:18:24.112Z,6.30
2023-09-11T17:20:52.836Z,7.38
2023-09-11T17:23:19.783Z,7.57
2023-09-11T17:25:47.350Z,7.13
2023-09-11T17:28:16.720Z,7.00
2023-09-11T17:30:43.736Z,8.63
2023-09-11T17:33:11.272Z,8.30
2023-09-11T17:35:38.757Z,14.05
2023-09-11T17:38:06.224Z,7.90
2023-09-11T17:40:33.303Z,7.75
2023-09-11T17:43:00.378Z,8.82
2023-09-11T17:45:27.364Z,7.38
2023-09-11T17:47:54.411Z,8.27
2023-09-11T17:50:21.363Z,7.80
2023-09-11T17:52:49.180Z,8.10
2023-09-11T17:55:16.401Z,7.53
2023-09-11T17:57:43.420Z,7.47
2023-09-11T18:00:11.245Z,9.18
2023-09-11T18:02:40.725Z,7.68
2023-09-11T18:05:08.052Z,8.90
2023-09-11T18:07:36.648Z,14.70
2023-09-11T18:10:05.107Z,9.02
2023-09-11T18:12:32.781Z,8.32
2023-09-11T18:15:00.035Z,7.57
2023-09-11T18:17:30.128Z,8.48
2023-09-11T18:19:58.015Z,8.73
2023-09-11T18:22:24.844Z,8.50
2023-09-11T18:24:51.751Z,9.65
2023-09-11T18:27:18.628Z,10.65
2023-09-11T18:29:46.374Z,9.15
2023-09-11T18:32:13.926Z,8.77
2023-09-11T18:34:41.022Z,8.88
2023-09-11T18:37:08.102Z,9.25
2023-09-11T18:39:35.244Z,9.63
2023-09-11T18:42:05.326Z,8.95
2023-09-11T18:44:32.268Z,9.60
2023-09-11T18:46:59.099Z,8.75
2023-09-11T18:49:27.844Z,9.73
2023-09-11T18:51:56.796Z,9.82
2023-09-11T18:54:25.728Z,9.52
2023-09-11T18:56:52.934Z,9.15
2023-09-11T18:59:19.890Z,9.27
2023-09-11T19:01:47.764Z,9.10
2023-09-11T19:04:15.663Z,9.90
2023-09-11T19:06:44.775Z,10.15
2023-09-11T19:09:12.242Z,9.55
2023-09-11T19:11:39.364Z,10.60
2023-09-11T19:14:06.259Z,11.77
2023-09-11T19:16:35.855Z,10.32
2023-09-11T19:19:02.807Z,11.70
2023-09-11T19:21:30.624Z,10.75
2023-09-11T19:23:57.650Z,10.68
2023-09-11T19:26:24.773Z,10.35
2023-09-11T19:28:52.807Z,10.98
2023-09-11T19:31:21.044Z,11.40
2023-09-11T19:33:48.815Z,10.50
2023-09-11T19:36:16.608Z,10.52
2023-09-11T19:38:45.372Z,12.23
2023-09-11T19:41:12.776Z,16.33
2023-09-11T19:43:39.780Z,15.02
2023-09-11T19:46:07.550Z,11.90
2023-09-11T19:48:37.302Z,12.63
2023-09-11T19:51:05.242Z,12.65
2023-09-11T19:53:32.310Z,10.95
2023-09-11T19:56:00.413Z,10.32
2023-09-11T19:58:29.361Z,10.88
2023-09-11T20:00:56.650Z,9.93
2023-09-11T20:03:23.973Z,10.50
2023-09-11T20:05:51.214Z,10.18
2023-09-11T20:08:18.285Z,9.48
2023-09-11T20:10:45.379Z,10.15
2023-09-11T20:13:12.458Z,10.75
2023-09-11T20:15:39.584Z,11.27
2023-09-11T20:18:06.632Z,10.55
2023-09-11T20:20:33.767Z,11.05
2023-09-11T20:23:00.609Z,10.65
2023-09-11T20:25:28.765Z,12.07
2023-09-11T20:27:57.364Z,10.48
2023-09-11T20:30:27.721Z,11.57
2023-09-11T20:32:54.785Z,11.65
2023-09-11T20:35:21.714Z,12.25
2023-09-11T20:37:48.676Z,13.70
2023-09-11T20:40:15.524Z,12.45
2023-09-11T20:42:42.755Z,14.70
2023-09-11T20:45:10.416Z,12.77
2023-09-11T20:47:37.560Z,13.18
2023-09-11T20:50:08.334Z,12.40
2023-09-11T20:52:35.247Z,13.77
2023-09-11T20:55:05.188Z,12.60
2023-09-11T20:57:32.769Z,11.93
2023-09-11T20:59:59.877Z,13.13
2023-09-11T21:02:26.849Z,10.95
2023-09-11T21:04:56.505Z,11.30
2023-09-11T21:07:23.605Z,10.90
2023-09-11T21:09:50.569Z,12.40
2023-09-11T21:12:17.579Z,13.05
2023-09-11T21:14:44.582Z,12.13
2023-09-11T21:17:11.431Z,10.88
2023-09-11T21:19:38.391Z,12.32
2023-09-11T21:22:05.243Z,11.82
2023-09-11T21:24:32.209Z,11.32
2023-09-11T21:26:59.330Z,11.77
2023-09-11T21:29:26.330Z,12.38
2023-09-11T21:31:53.234Z,12.60
2023-09-11T21:34:20.164Z,13.18
2023-09-11T21:36:47.179Z,12.43
2023-09-11T21:39:16.740Z,12.23
2023-09-11T21:41:43.688Z,12.25
2023-09-11T21:44:10.625Z,13.00
2023-09-11T21:46:37.519Z,13.77
2023-09-11T21:49:05.481Z,14.30
2023-09-11T21:51:32.511Z,15.38
2023-09-11T21:54:13.447Z,13.55
2023-09-11T21:56:42.006Z,13.23
2023-09-11T21:59:08.888Z,13.65
2023-09-11T22:01:35.909Z,13.43
2023-09-11T22:04:04.942Z,13.50
2023-09-11T22:06:32.017Z,13.05
2023-09-11T22:08:59.003Z,13.77
2023-09-11T22:11:26.218Z,11.45
2023-09-11T22:13:53.381Z,11.10
2023-09-11T22:16:20.543Z,12.48
2023-09-11T22:18:47.728Z,12.43
2023-09-11T22:21:14.662Z,11.00
2023-09-11T22:23:41.614Z,11.27
2023-09-11T22:26:08.651Z,11.50
2023-09-11T22:28:36.236Z,10.68
2023-09-11T22:31:03.356Z,10.70
2023-09-11T22:33:30.267Z,9.93
2023-09-11T22:35:57.243Z,10.45
2023-09-11T22:38:24.213Z,9.30
2023-09-11T22:40:51.143Z,9.55
2023-09-11T22:43:17.954Z,9.93
2023-09-11T22:45:44.823Z,10.10
2023-09-11T22:48:11.872Z,11.00
2023-09-11T22:50:40.171Z,10.25
2023-09-11T22:53:07.283Z,11.10
2023-09-11T22:55:40.289Z,9.75
2023-09-11T22:58:09.412Z,9.55
2023-09-11T23:00:40.703Z,10.15
2023-09-11T23:03:09.332Z,9.57
2023-09-11T23:05:37.593Z,9.50
2023-09-11T23:08:04.904Z,10.35
2023-09-11T23:10:32.667Z,9.77
2023-09-11T23:12:59.866Z,10.50
2023-09-11T23:15:26.894Z,10.27
2023-09-11T23:17:53.797Z,10.32
2023-09-11T23:20:20.683Z,10.65
2023-09-11T23:22:47.544Z,11.27
2023-09-11T23:25:14.532Z,13.23
2023-09-11T23:27:41.526Z,10.63
2023-09-11T23:30:10.385Z,11.35
2023-09-11T23:32:37.530Z,10.88
2023-09-11T23:35:05.083Z,11.57
2023-09-11T23:37:32.151Z,11.20
2023-09-11T23:39:58.997Z,11.00
2023-09-11T23:42:25.994Z,12.30
2023-09-11T23:44:52.947Z,11.52
2023-09-11T23:47:19.819Z,11.52
2023-09-11T23:49:46.909Z,11.65
2023-09-11T23:52:25.442Z,12.13
2023-09-11T23:54:54.237Z,12.95
2023-09-11T23:57:21.171Z,12.48
2023-09-11T23:59:48.226Z,12.00
